Time;durP1;ratioP1;P1;durP2;ratioP2;P2;SDS_P1;SDS_P2;PMS_P1;PMS_P2;Temp;Humidity;BMP_temperature;BMP_pressure;BME280_temperature;BME280_humidity;BME280_pressure;Samples;Min_cycle;Max_cycle;Signal;HPM_P1;HPM_P2
2023/05/24 00:01:43;;;;;;;8.35;3.53;;;;;;;8.16;81.83;102741.31;6101638;19;20009;-75
2023/05/24 00:03:49;;;;;;;9.13;3.42;;;;;;;8.10;82.95;102736.94;6100297;19;20010;-75
2023/05/24 00:05:55;;;;;;;9.93;3.40;;;;;;;8.12;81.09;102742.19;6095842;19;20010;-74
2023/05/24 00:08:03;;;;;;;12.73;3.70;;;;;;;8.08;81.47;102737.81;6099548;19;20030;-75
2023/05/24 00:10:10;;;;;;;10.77;3.58;;;;;;;8.05;81.96;102729.97;6098704;19;20003;-75
2023/05/24 00:12:15;;;;;;;11.93;3.78;;;;;;;8.03;81.48;102730.00;6099627;19;20007;-75
2023/05/24 00:14:20;;;;;;;9.23;3.55;;;;;;;7.99;81.27;102727.34;6093309;19;20014;-75
2023/05/24 00:16:26;;;;;;;9.40;4.38;;;;;;;7.98;81.78;102722.97;6100570;19;20607;-75
2023/05/24 00:18:32;;;;;;;14.38;4.60;;;;;;;7.90;84.12;102718.63;6100387;19;20006;-75
2023/05/24 00:20:37;;;;;;;11.60;3.83;;;;;;;7.90;83.92;102718.63;6097770;19;20046;-75
2023/05/24 00:22:43;;;;;;;11.25;3.88;;;;;;;7.89;83.96;102721.22;6098577;19;20007;-74
2023/05/24 00:24:54;;;;;;;9.25;3.70;;;;;;;7.88;83.22;102715.13;6096583;19;20039;-76
2023/05/24 00:27:02;;;;;;;12.02;3.88;;;;;;;7.91;83.96;102711.66;6095566;19;20129;-74
2023/05/24 00:29:07;;;;;;;11.40;3.90;;;;;;;7.86;84.44;102711.63;6097926;19;20025;-75
2023/05/24 00:31:12;;;;;;;7.35;3.35;;;;;;;7.85;83.95;102712.50;6094245;19;20011;-76
2023/05/24 00:33:17;;;;;;;10.25;3.47;;;;;;;7.83;83.93;102716.88;6094685;19;20010;-75
2023/05/24 00:35:23;;;;;;;13.63;3.97;;;;;;;7.81;84.37;102723.84;6095493;19;20443;-75
2023/05/24 00:37:32;;;;;;;8.07;3.47;;;;;;;7.81;83.97;102718.59;6094532;19;20699;-76
2023/05/24 00:39:37;;;;;;;8.05;3.55;;;;;;;7.78;83.61;102718.59;6095940;19;20425;-76
2023/05/24 00:41:45;;;;;;;11.68;4.00;;;;;;;7.76;84.05;102715.09;6096183;19;20011;-74
2023/05/24 00:43:50;;;;;;;11.60;4.90;;;;;;;7.73;85.46;102716.84;6095374;19;20021;-75
2023/05/24 00:46:18;;;;;;;8.38;4.15;;;;;;;7.67;85.00;102721.22;6096557;19;20006;-76
2023/05/24 00:48:27;;;;;;;15.60;5.78;;;;;;;7.66;85.17;102722.09;6094697;19;20188;-75
2023/05/24 00:50:33;;;;;;;18.02;4.90;;;;;;;7.63;85.77;102716.81;6099119;19;20015;-75
2023/05/24 00:52:39;;;;;;;10.13;4.22;;;;;;;7.61;85.25;102720.31;6094326;19;20007;-76
2023/05/24 00:54:45;;;;;;;11.23;3.75;;;;;;;7.60;84.81;102723.81;6098337;19;20003;-76
2023/05/24 00:56:56;;;;;;;10.43;3.47;;;;;;;7.58;86.13;102721.22;6104327;19;20137;-75
2023/05/24 00:59:02;;;;;;;9.57;3.28;;;;;;;7.58;85.28;102723.81;6100594;19;20773;-75
2023/05/24 01:01:08;;;;;;;11.48;3.75;;;;;;;7.59;85.24;102712.47;6105308;19;20006;-75
2023/05/24 01:03:14;;;;;;;14.13;3.90;;;;;;;7.59;85.22;102722.06;6102635;19;20136;-75
2023/05/24 01:05:19;;;;;;;13.13;4.15;;;;;;;7.58;86.46;102725.53;6096612;19;20022;-75
2023/05/24 01:07:29;;;;;;;11.73;3.75;;;;;;;7.59;86.12;102715.09;6099563;19;20182;-75
2023/05/24 01:09:43;;;;;;;11.07;3.15;;;;;;;7.56;85.17;102714.22;6098256;19;20006;-75
2023/05/24 01:12:05;;;;;;;12.07;3.28;;;;;;;7.51;85.28;102715.97;6097515;19;20007;-75
2023/05/24 01:14:22;;;;;;;9.88;3.20;;;;;;;7.48;86.43;102709.84;6094593;19;20341;-76
2023/05/24 01:16:38;;;;;;;12.23;3.63;;;;;;;7.46;87.36;102710.72;6095174;19;20492;-75
2023/05/24 01:18:50;;;;;;;10.45;3.63;;;;;;;7.47;87.24;102709.81;6102453;19;20361;-75
2023/05/24 01:21:08;;;;;;;8.90;3.25;;;;;;;7.46;86.32;102713.31;6103586;19;20665;-72
2023/05/24 01:23:24;;;;;;;9.95;3.70;;;;;;;7.42;86.72;102717.66;6102863;19;20439;-72
2023/05/24 01:25:47;;;;;;;11.07;3.75;;;;;;;7.40;86.63;102708.94;6100946;19;20459;-72
2023/05/24 01:27:57;;;;;;;9.95;3.35;;;;;;;7.40;87.37;102718.53;6100240;19;20483;-72
2023/05/24 01:30:03;;;;;;;10.35;4.28;;;;;;;7.39;86.16;102722.88;6097960;19;20017;-72
2023/05/24 01:32:09;;;;;;;8.90;3.40;;;;;;;7.39;86.84;102712.41;6099849;19;20037;-73
2023/05/24 01:34:14;;;;;;;9.32;3.58;;;;;;;7.39;87.35;102709.81;6097133;19;20013;-72
2023/05/24 01:36:23;;;;;;;8.48;3.65;;;;;;;7.36;86.20;102707.19;6075526;19;20014;-72
2023/05/24 01:38:28;;;;;;;8.05;3.20;;;;;;;7.36;87.07;102711.53;6097890;19;20007;-72
2023/05/24 01:40:34;;;;;;;7.57;2.88;;;;;;;7.39;86.83;102707.19;6100182;19;20010;-73
2023/05/24 01:42:47;;;;;;;14.52;3.58;;;;;;;7.35;86.97;102708.06;6097207;19;20013;-73
2023/05/24 01:45:05;;;;;;;9.52;2.90;;;;;;;7.34;87.54;102711.53;6094924;19;20014;-73
2023/05/24 01:47:26;;;;;;;7.25;3.22;;;;;;;7.30;87.75;102709.78;6098496;19;20542;-71
2023/05/24 01:49:39;;;;;;;10.80;3.45;;;;;;;7.25;87.88;102704.53;6100061;19;20022;-72
2023/05/24 01:51:51;;;;;;;9.75;2.85;;;;;;;7.24;87.79;102705.41;6099848;19;20006;-72
2023/05/24 01:54:00;;;;;;;11.02;3.50;;;;;;;7.23;87.32;102703.66;6093452;19;20007;-72
2023/05/24 01:56:08;;;;;;;8.00;3.10;;;;;;;7.22;88.80;102707.16;6099065;19;20384;-72
2023/05/24 01:58:17;;;;;;;11.38;3.92;;;;;;;7.28;88.07;102703.69;6096145;19;20365;-72
2023/05/24 02:00:26;;;;;;;6.70;3.30;;;;;;;7.25;87.67;102706.28;6092867;19;20090;-71
2023/05/24 02:02:35;;;;;;;14.98;4.13;;;;;;;7.21;87.57;102699.28;6094844;19;20010;-73
2023/05/24 02:04:40;;;;;;;9.95;3.63;;;;;;;7.19;87.75;102704.53;6092760;19;20020;-72
2023/05/24 02:06:45;;;;;;;9.73;3.13;;;;;;;7.17;87.66;102708.00;6099553;19;20027;-72
2023/05/24 02:08:53;;;;;;;9.60;3.40;;;;;;;7.14;88.53;102705.38;6095745;19;20011;-71
2023/05/24 02:11:01;;;;;;;10.40;3.55;;;;;;;7.14;87.58;102703.63;6099516;19;20028;-72
2023/05/24 02:13:07;;;;;;;10.15;3.83;;;;;;;7.17;88.34;102700.16;6102257;19;20038;-73
2023/05/24 02:15:13;;;;;;;8.80;3.45;;;;;;;7.20;88.71;102697.56;6103631;19;20017;-72
2023/05/24 02:17:24;;;;;;;7.97;2.88;;;;;;;7.20;88.00;102702.78;6101894;19;20044;-72
2023/05/24 02:19:33;;;;;;;8.80;3.13;;;;;;;7.20;88.85;102708.00;6104026;19;20053;-72
2023/05/24 02:21:39;;;;;;;11.45;3.50;;;;;;;7.20;87.60;102705.41;6094401;19;20038;-72
2023/05/24 02:23:45;;;;;;;10.60;4.05;;;;;;;7.18;87.94;102691.44;6103270;19;20025;-72
2023/05/24 02:25:50;;;;;;;9.48;3.20;;;;;;;7.18;87.93;102694.91;6099688;19;20007;-73
2023/05/24 02:27:56;;;;;;;8.57;3.13;;;;;;;7.17;87.95;102693.19;6096676;19;20019;-71
2023/05/24 02:30:01;;;;;;;10.93;5.40;;;;;;;7.14;88.21;102700.16;6102560;19;20018;-71
2023/05/24 02:32:07;;;;;;;11.13;4.40;;;;;;;7.11;88.36;102695.78;6102017;19;20039;-72
2023/05/24 02:34:15;;;;;;;14.18;5.30;;;;;;;7.06;89.58;102701.84;6100744;19;20015;-71
2023/05/24 02:36:22;;;;;;;11.40;4.20;;;;;;;7.06;89.43;102696.59;6097923;19;20494;-72
2023/05/24 02:38:28;;;;;;;13.60;4.38;;;;;;;7.09;89.61;102700.13;6088052;19;20558;-71
2023/05/24 02:40:33;;;;;;;13.52;4.63;;;;;;;7.06;89.26;102694.91;6089229;19;20011;-72
2023/05/24 02:42:42;;;;;;;11.13;4.32;;;;;;;7.06;89.82;102700.13;6096941;19;20019;-72
2023/05/24 02:44:51;;;;;;;12.70;3.63;;;;;;;7.00;91.04;102700.06;6097847;19;20029;-72
2023/05/24 02:46:56;;;;;;;11.80;4.05;;;;;;;7.01;89.49;102694.00;6098419;19;20462;-72
2023/05/24 02:49:01;;;;;;;14.10;3.97;;;;;;;7.00;88.94;102698.38;6088457;19;20010;-72
2023/05/24 02:51:09;;;;;;;9.85;3.65;;;;;;;6.99;90.44;102707.06;6095426;19;20046;-72
2023/05/24 02:53:14;;;;;;;10.02;3.58;;;;;;;6.98;89.28;102712.28;6091868;19;20003;-72
2023/05/24 02:55:19;;;;;;;8.68;3.60;;;;;;;6.94;90.33;102708.75;6093469;19;20546;-71
2023/05/24 02:57:24;;;;;;;13.68;4.15;;;;;;;6.94;90.68;102706.16;6099423;19;20472;-72
2023/05/24 02:59:30;;;;;;;10.85;3.58;;;;;;;6.92;89.94;102705.25;6096290;19;20381;-72
2023/05/24 03:01:35;;;;;;;10.38;3.70;;;;;;;6.89;90.64;102700.03;6097257;19;20087;-71
2023/05/24 03:03:41;;;;;;;8.55;4.10;;;;;;;6.89;91.07;102705.25;6096022;19;20003;-71
2023/05/24 03:05:46;;;;;;;9.68;4.22;;;;;;;6.89;91.54;102707.00;6093169;19;20010;-72
2023/05/24 03:07:54;;;;;;;13.48;4.10;;;;;;;6.92;91.10;102701.78;6095300;19;20007;-72
2023/05/24 03:10:01;;;;;;;9.57;3.72;;;;;;;6.91;89.84;102700.91;6085681;19;20006;-72
2023/05/24 03:12:08;;;;;;;13.30;4.43;;;;;;;6.92;89.91;102697.44;6095957;19;20518;-72
2023/05/24 03:14:16;;;;;;;10.32;3.70;;;;;;;6.92;90.27;102697.44;6095395;19;20018;-71
2023/05/24 03:16:22;;;;;;;9.20;3.42;;;;;;;6.91;89.75;102693.06;6098001;19;20425;-72
2023/05/24 03:18:29;;;;;;;9.73;3.58;;;;;;;6.89;89.90;102692.19;6098749;19;20382;-71
2023/05/24 03:20:35;;;;;;;9.25;3.35;;;;;;;6.87;89.82;102688.69;6100580;19;20031;-71
2023/05/24 03:22:40;;;;;;;9.77;3.17;;;;;;;6.89;89.99;102684.34;6102335;19;20007;-71
2023/05/24 03:24:48;;;;;;;11.00;3.90;;;;;;;6.87;90.48;102688.69;6102591;19;20494;-72
2023/05/24 03:26:54;;;;;;;12.48;3.97;;;;;;;6.86;90.74;102693.94;6101078;19;20114;-71
2023/05/24 03:29:00;;;;;;;16.95;4.75;;;;;;;6.84;91.59;102688.69;6101535;19;20030;-72
2023/05/24 03:31:05;;;;;;;11.15;4.43;;;;;;;6.81;90.38;102683.44;6104695;19;20725;-73
2023/05/24 03:33:10;;;;;;;8.57;3.40;;;;;;;6.81;91.13;102686.94;6103447;19;20513;-73
2023/05/24 03:35:16;;;;;;;9.95;4.03;;;;;;;6.82;91.08;102688.69;6100857;19;20654;-72
2023/05/24 03:37:23;;;;;;;13.80;4.30;;;;;;;6.79;91.87;102682.56;6101465;19;20011;-75
2023/05/24 03:39:31;;;;;;;15.52;5.28;;;;;;;6.79;91.67;102679.94;6096201;19;20113;-75
2023/05/24 03:41:40;;;;;;;13.43;4.55;;;;;;;6.80;90.76;102689.56;6100893;19;20003;-75
2023/05/24 03:43:45;;;;;;;14.00;4.30;;;;;;;6.80;90.71;102684.31;6100760;19;20549;-74
2023/05/24 03:45:53;;;;;;;11.48;3.90;;;;;;;6.80;90.42;102682.56;6098465;19;20002;-74
2023/05/24 03:47:59;;;;;;;7.85;3.40;;;;;;;6.83;90.56;102681.72;6100813;19;20136;-75
2023/05/24 03:50:05;;;;;;;10.00;3.58;;;;;;;6.83;90.48;102673.88;6101433;19;20010;-75
2023/05/24 03:52:10;;;;;;;13.27;4.28;;;;;;;6.80;91.60;102679.97;6102361;19;20030;-74
2023/05/24 03:54:16;;;;;;;15.20;4.20;;;;;;;6.81;91.90;102683.44;6097489;19;20046;-75
2023/05/24 03:56:25;;;;;;;8.15;3.50;;;;;;;6.81;92.06;102684.31;6102379;19;20010;-75
2023/05/24 03:58:38;;;;;;;14.23;4.20;;;;;;;6.83;93.13;102686.94;6105638;19;20014;-75
2023/05/24 04:00:43;;;;;;;9.77;3.85;;;;;;;6.83;92.17;102681.72;6101734;19;20462;-76
2023/05/24 04:02:49;;;;;;;9.23;3.55;;;;;;;6.89;92.20;102675.63;6107013;19;20002;-75
2023/05/24 04:04:55;;;;;;;10.95;4.15;;;;;;;6.93;91.82;102675.66;6104808;19;20034;-75
2023/05/24 04:07:00;;;;;;;9.82;3.63;;;;;;;6.93;91.79;102673.06;6104099;19;20048;-75
2023/05/24 04:09:06;;;;;;;12.70;4.13;;;;;;;6.95;91.74;102676.56;6103301;19;20019;-75
2023/05/24 04:11:11;;;;;;;12.10;4.68;;;;;;;6.96;92.42;102680.91;6105209;19;20018;-74
2023/05/24 04:13:22;;;;;;;9.13;3.88;;;;;;;6.99;92.17;102682.66;6101726;19;20036;-74
2023/05/24 04:15:31;;;;;;;12.52;4.15;;;;;;;7.04;92.24;102689.66;6100945;19;20003;-74
2023/05/24 04:17:39;;;;;;;14.30;4.30;;;;;;;7.08;92.21;102693.13;6100206;19;20537;-74
2023/05/24 04:19:45;;;;;;;10.90;3.53;;;;;;;7.16;92.43;102698.41;6103575;19;20504;-74
2023/05/24 04:21:51;;;;;;;9.65;3.65;;;;;;;7.25;91.65;102701.91;6102969;19;20034;-76
2023/05/24 04:23:59;;;;;;;12.13;4.68;;;;;;;7.38;91.91;102702.84;6103156;19;20017;-75
2023/05/24 04:26:04;;;;;;;11.45;4.40;;;;;;;7.52;91.87;102699.38;6101578;19;20011;-74
2023/05/24 04:28:10;;;;;;;15.25;5.30;;;;;;;7.67;91.90;102696.78;6102787;19;20006;-74
2023/05/24 04:30:16;;;;;;;14.82;5.05;;;;;;;7.81;91.70;102699.41;6102898;19;20502;-74
2023/05/24 04:32:25;;;;;;;13.90;4.80;;;;;;;7.96;91.22;102702.06;6098316;19;20007;-74
2023/05/24 04:34:34;;;;;;;11.00;5.00;;;;;;;8.08;91.34;102701.16;6100563;19;20550;-76
2023/05/24 04:36:43;;;;;;;11.50;3.90;;;;;;;8.24;91.31;102699.41;6088480;19;20005;-73
2023/05/24 04:38:49;;;;;;;13.18;4.38;;;;;;;8.36;91.27;102695.03;6103010;19;20076;-74
2023/05/24 04:40:55;;;;;;;17.95;5.15;;;;;;;8.52;90.97;102702.91;6097109;19;21250;-74
2023/05/24 04:43:03;;;;;;;18.02;4.97;;;;;;;8.72;91.12;102700.25;6099259;19;20014;-74
2023/05/24 04:45:11;;;;;;;18.92;5.60;;;;;;;8.93;91.09;102694.94;6098096;19;20348;-74
2023/05/24 04:47:16;;;;;;;13.52;4.57;;;;;;;9.05;90.42;102694.00;6096481;19;20015;-74
2023/05/24 04:49:24;;;;;;;16.83;4.32;;;;;;;9.23;89.86;102688.66;6100844;19;20007;-75
2023/05/24 04:51:32;;;;;;;17.67;6.43;;;;;;;9.29;89.51;102693.00;6098247;19;20446;-74
2023/05/24 04:53:38;;;;;;;14.43;4.50;;;;;;;9.45;89.30;102680.66;6099108;19;20032;-74
2023/05/24 04:55:44;;;;;;;13.13;4.88;;;;;;;9.60;88.76;102674.44;6101956;19;20013;-75
2023/05/24 04:57:49;;;;;;;14.98;4.45;;;;;;;9.72;88.46;102684.88;6102277;19;20007;-75
2023/05/24 04:59:54;;;;;;;19.70;6.13;;;;;;;9.89;87.85;102684.72;6102482;19;20339;-74
2023/05/24 05:02:00;;;;;;;17.95;5.00;;;;;;;9.98;86.88;102682.03;6105158;19;20007;-74
2023/05/24 05:04:06;;;;;;;17.80;5.68;;;;;;;10.14;86.50;102688.03;6104113;19;20078;-75
2023/05/24 05:06:15;;;;;;;16.13;4.75;;;;;;;10.32;86.58;102689.63;6103285;19;20003;-75
2023/05/24 05:08:21;;;;;;;19.77;4.85;;;;;;;10.38;85.37;102679.06;6101378;19;20028;-75
2023/05/24 05:10:27;;;;;;;14.88;5.00;;;;;;;10.47;85.18;102680.72;6103049;19;20420;-73
2023/05/24 05:12:32;;;;;;;21.33;5.50;;;;;;;10.56;85.17;102683.25;6103561;19;20011;-75
2023/05/24 05:14:38;;;;;;;18.42;5.30;;;;;;;10.71;85.23;102682.19;6098081;19;20035;-74
2023/05/24 05:16:45;;;;;;;17.02;5.13;;;;;;;10.80;84.19;102689.13;6099828;19;20055;-77
2023/05/24 05:18:50;;;;;;;17.33;5.55;;;;;;;11.07;84.43;102680.88;6101687;19;20011;-75
2023/05/24 05:20:56;;;;;;;22.80;5.20;;;;;;;11.09;83.64;102678.25;6104187;19;20019;-74
2023/05/24 05:23:03;;;;;;;16.15;5.22;;;;;;;11.08;82.94;102687.00;6101639;19;20418;-75
2023/05/24 05:25:09;;;;;;;20.10;6.00;;;;;;;11.34;82.26;102678.75;6104014;19;20042;-75
2023/05/24 05:27:14;;;;;;;19.25;5.90;;;;;;;11.37;82.35;102679.63;6102778;19;20010;-75
2023/05/24 05:29:19;;;;;;;20.35;5.75;;;;;;;11.54;81.32;102681.97;6098720;19;20002;-75
2023/05/24 05:31:27;;;;;;;20.15;5.40;;;;;;;11.80;80.94;102678.94;6102242;19;20012;-74
2023/05/24 05:33:36;;;;;;;20.27;5.90;;;;;;;11.63;80.71;102683.59;6097351;19;20014;-72
2023/05/24 05:35:42;;;;;;;19.50;5.80;;;;;;;11.42;81.62;102688.28;6100092;19;20070;-72
2023/05/24 05:37:47;;;;;;;17.48;5.75;;;;;;;11.57;81.24;102691.59;6102944;19;20039;-72
2023/05/24 05:39:58;;;;;;;24.77;6.50;;;;;;;11.66;81.33;102691.44;6103277;19;20455;-72
2023/05/24 05:42:03;;;;;;;19.13;5.88;;;;;;;11.65;80.85;102695.00;6101747;19;20411;-72
2023/05/24 05:44:08;;;;;;;15.88;5.55;;;;;;;11.68;81.77;102701.97;6103039;19;20006;-73
2023/05/24 05:46:15;;;;;;;15.25;4.80;;;;;;;11.49;81.18;102693.47;6100390;19;20512;-72
2023/05/24 05:48:22;;;;;;;24.90;5.95;;;;;;;11.27;81.75;102699.06;6100963;19;20040;-74
2023/05/24 05:50:27;;;;;;;12.50;5.05;;;;;;;11.43;82.11;102694.44;6100649;19;20043;-72
2023/05/24 05:52:32;;;;;;;20.45;5.15;;;;;;;11.55;81.87;102699.50;6095640;19;20585;-73
2023/05/24 05:54:37;;;;;;;21.15;7.75;;;;;;;11.55;81.98;102709.19;6092710;19;20021;-73
2023/05/24 05:56:47;;;;;;;17.73;5.93;;;;;;;11.38;81.91;102701.53;6102305;19;20006;-72
2023/05/24 05:58:57;;;;;;;18.60;6.30;;;;;;;11.48;82.22;102700.50;6097596;19;20090;-73
2023/05/24 06:01:03;;;;;;;18.52;5.45;;;;;;;11.52;81.94;102701.31;6097276;19;20014;-72
2023/05/24 06:03:08;;;;;;;22.88;5.82;;;;;;;11.39;82.14;102704.13;6096826;19;20035;-72
2023/05/24 06:05:17;;;;;;;26.60;6.07;;;;;;;11.45;82.09;102697.03;6100308;19;20381;-72
2023/05/24 06:07:23;;;;;;;21.80;5.60;;;;;;;11.46;82.05;102706.69;6098456;19;20007;-72
2023/05/24 06:09:30;;;;;;;19.55;5.68;;;;;;;11.46;81.96;102698.78;6102791;19;20043;-70
2023/05/24 06:11:35;;;;;;;20.05;5.22;;;;;;;11.47;81.24;102695.25;6099980;19;20018;-72
2023/05/24 06:13:44;;;;;;;20.75;5.10;;;;;;;11.46;81.80;102699.66;6098890;19;20362;-72
2023/05/24 06:15:51;;;;;;;20.50;5.32;;;;;;;11.49;80.96;102704.00;6094874;19;20566;-72
2023/05/24 06:17:57;;;;;;;18.65;5.68;;;;;;;11.47;80.57;102701.38;6098750;19;20086;-72
2023/05/24 06:20:08;;;;;;;14.27;5.30;;;;;;;11.50;80.33;102703.09;6097068;19;20078;-70
2023/05/24 06:22:14;;;;;;;15.32;5.70;;;;;;;11.65;80.39;102706.38;6098490;19;20078;-71
2023/05/24 06:24:23;;;;;;;12.73;4.32;;;;;;;11.88;79.65;102709.59;6099238;19;20014;-71
2023/05/24 06:26:32;;;;;;;25.58;6.03;;;;;;;11.88;79.04;102707.84;6096148;19;20023;-72
2023/05/24 06:28:37;;;;;;;17.88;4.47;;;;;;;11.85;78.63;102710.50;6098564;19;20003;-71
2023/05/24 06:30:46;;;;;;;14.23;5.25;;;;;;;11.93;77.77;102711.28;6103294;19;20078;-70
2023/05/24 06:32:55;;;;;;;19.92;6.47;;;;;;;11.95;77.60;102708.59;6100578;19;20055;-74
2023/05/24 06:35:01;;;;;;;22.55;5.57;;;;;;;11.94;77.69;102706.88;6100860;19;20496;-74
2023/05/24 06:37:09;;;;;;;18.33;4.80;;;;;;;12.13;76.87;102718.81;6103206;19;20534;-75
2023/05/24 06:39:15;;;;;;;20.63;6.28;;;;;;;12.16;76.31;102712.63;6102312;19;20014;-74
2023/05/24 06:41:21;;;;;;;16.40;4.97;;;;;;;12.27;76.23;102708.06;6102076;19;20014;-74
2023/05/24 06:43:26;;;;;;;14.98;4.63;;;;;;;12.43;76.44;102706.88;6104550;19;20530;-74
2023/05/24 06:45:32;;;;;;;19.15;5.18;;;;;;;12.48;75.47;102707.69;6102767;19;20456;-75
2023/05/24 06:47:39;;;;;;;18.55;5.53;;;;;;;12.38;75.38;102708.75;6101878;19;20010;-74
2023/05/24 06:49:46;;;;;;;20.25;5.63;;;;;;;12.42;75.19;102702.50;6103838;19;20040;-74
2023/05/24 06:51:54;;;;;;;17.25;5.10;;;;;;;12.38;75.29;102702.59;6105174;19;20516;-74
2023/05/24 06:53:59;;;;;;;18.45;5.95;;;;;;;12.28;74.92;102708.03;6093971;19;20485;-75
2023/05/24 06:56:05;;;;;;;19.45;6.03;;;;;;;12.47;74.97;102702.41;6101668;19;20030;-75
2023/05/24 06:58:13;;;;;;;14.98;4.85;;;;;;;12.51;73.20;102709.38;6100476;19;20058;-76
2023/05/24 07:00:20;;;;;;;13.85;4.13;;;;;;;12.49;72.49;102708.53;6096038;19;20035;-74
2023/05/24 07:02:29;;;;;;;15.85;5.20;;;;;;;12.55;72.03;102707.56;6098923;19;20421;-75
2023/05/24 07:04:39;;;;;;;24.90;5.45;;;;;;;12.65;72.37;102707.34;6094781;19;20011;-74
2023/05/24 07:06:46;;;;;;;15.60;4.72;;;;;;;12.87;71.70;102709.56;6098834;19;20049;-75
2023/05/24 07:08:54;;;;;;;22.98;5.30;;;;;;;12.78;71.50;102701.84;6097798;19;20011;-75
2023/05/24 07:10:59;;;;;;;18.95;6.22;;;;;;;13.13;72.00;102704.59;6100585;19;20034;-75
2023/05/24 07:13:05;;;;;;;18.08;4.72;;;;;;;13.09;69.36;102697.66;6099341;19;20562;-74
2023/05/24 07:15:12;;;;;;;16.15;4.25;;;;;;;13.25;68.89;102702.63;6099629;19;20017;-76
2023/05/24 07:17:19;;;;;;;18.38;4.82;;;;;;;13.20;69.38;102707.13;6102573;19;20105;-75
2023/05/24 07:19:27;;;;;;;13.55;4.50;;;;;;;13.42;70.46;102704.91;6104314;19;20014;-76
2023/05/24 07:24:49;;;;;;;17.30;5.30;;;;;;;13.72;68.15;102708.63;6078264;19;20459;-75
2023/05/24 07:26:56;;;;;;;11.73;4.35;;;;;;;13.94;67.36;102712.47;6093840;19;20581;-74
2023/05/24 07:29:01;;;;;;;14.15;4.38;;;;;;;14.10;67.03;102720.03;6098591;19;20078;-74
2023/05/24 07:31:08;;;;;;;15.70;4.68;;;;;;;13.83;66.30;102717.16;6098938;19;20014;-74
2023/05/24 07:33:15;;;;;;;16.88;4.85;;;;;;;13.74;66.33;102710.28;6101834;19;20098;-75
2023/05/24 07:35:22;;;;;;;14.93;4.45;;;;;;;13.99;65.87;102710.59;6096020;19;20010;-75
2023/05/24 07:37:27;;;;;;;16.27;4.43;;;;;;;13.80;65.35;102719.88;6098978;19;20018;-76
2023/05/24 07:39:33;;;;;;;18.85;5.05;;;;;;;13.79;64.95;102720.75;6098910;19;20299;-74
2023/05/24 07:41:41;;;;;;;15.55;4.40;;;;;;;14.10;65.79;102718.25;6098358;19;20003;-74
2023/05/24 07:43:46;;;;;;;19.83;4.47;;;;;;;14.35;65.12;102715.84;6099253;19;20031;-75
2023/05/24 07:45:52;;;;;;;15.88;4.50;;;;;;;14.22;63.94;102715.28;6097373;19;20010;-76
2023/05/24 07:47:58;;;;;;;11.40;4.38;;;;;;;14.26;62.79;102716.06;6099716;19;20015;-74
2023/05/24 07:50:03;;;;;;;11.30;3.40;;;;;;;14.52;60.65;102712.75;6098586;19;20015;-74
2023/05/24 07:52:08;;;;;;;20.90;4.35;;;;;;;14.30;61.06;102714.22;6099236;19;20484;-75
2023/05/24 07:54:13;;;;;;;11.65;4.20;;;;;;;14.54;61.68;102715.38;6097310;19;20010;-77
2023/05/24 07:56:18;;;;;;;17.30;4.55;;;;;;;14.62;62.07;102708.97;6097178;19;20014;-77
2023/05/24 07:58:29;;;;;;;18.02;4.40;;;;;;;14.99;61.61;102715.00;6094144;19;20539;-74
2023/05/24 08:00:34;;;;;;;15.07;4.13;;;;;;;14.57;61.41;102715.31;6099604;19;20006;-72
2023/05/24 08:02:42;;;;;;;28.58;5.45;;;;;;;14.43;60.82;102711.22;6100147;19;20574;-74
2023/05/24 08:04:48;;;;;;;12.23;3.95;;;;;;;14.30;62.53;102717.75;6102280;19;20618;-76
2023/05/24 08:06:53;;;;;;;15.13;4.40;;;;;;;14.21;62.37;102721.47;6101231;19;20018;-76
2023/05/24 08:09:00;;;;;;;12.60;4.28;;;;;;;14.79;62.80;102721.72;6102777;19;20493;-76
2023/05/24 08:11:06;;;;;;;14.43;3.83;;;;;;;14.98;60.65;102726.50;6098715;19;20375;-76
2023/05/24 08:13:11;;;;;;;12.57;3.65;;;;;;;14.78;59.62;102725.28;6099495;19;20554;-75
2023/05/24 08:15:22;;;;;;;11.93;3.35;;;;;;;15.33;60.45;102722.81;6101248;19;20042;-75
2023/05/24 08:17:31;;;;;;;18.98;4.47;;;;;;;15.87;58.10;102719.34;6097578;19;20022;-76
2023/05/24 08:19:36;;;;;;;13.75;3.72;;;;;;;14.96;59.52;102726.56;6099599;19;20018;-75
2023/05/24 08:21:42;;;;;;;12.45;3.38;;;;;;;15.20;59.28;102717.03;6100188;19;20002;-75
2023/05/24 08:23:47;;;;;;;15.20;3.78;;;;;;;14.97;59.48;102714.19;6102944;19;20547;-76
2023/05/24 08:25:57;;;;;;;11.52;3.55;;;;;;;15.25;60.37;102712.44;6099458;19;20033;-76
2023/05/24 08:28:02;;;;;;;12.30;3.60;;;;;;;15.54;60.33;102713.34;6100659;19;20010;-75
2023/05/24 08:30:09;;;;;;;20.65;4.80;;;;;;;15.24;59.72;102708.06;6096407;19;20021;-75
2023/05/24 08:32:18;;;;;;;15.63;4.32;;;;;;;15.34;59.82;102717.44;6096717;19;20440;-75
2023/05/24 08:34:23;;;;;;;15.35;4.10;;;;;;;15.94;57.46;102709.44;6101900;19;20461;-76
2023/05/24 08:36:31;;;;;;;15.27;4.10;;;;;;;15.74;56.36;102713.59;6098283;19;20344;-75
2023/05/24 08:38:36;;;;;;;12.23;3.80;;;;;;;15.67;58.18;102701.44;6095787;19;20535;-75
2023/05/24 08:40:41;;;;;;;17.50;4.30;;;;;;;15.42;58.37;102713.72;6097882;19;20478;-74
2023/05/24 08:42:48;;;;;;;18.60;4.53;;;;;;;14.89;59.76;102711.75;6098238;19;20006;-75
2023/05/24 08:45:00;;;;;;;13.20;4.78;;;;;;;14.98;59.78;102708.84;6101091;19;20007;-77
2023/05/24 08:47:06;;;;;;;13.57;4.07;;;;;;;15.80;57.98;102708.09;6100916;19;20713;-76
2023/05/24 08:49:14;;;;;;;17.55;4.72;;;;;;;16.41;56.84;102701.63;6101924;19;20037;-76
2023/05/24 08:51:19;;;;;;;13.73;4.85;;;;;;;17.16;54.97;102700.69;6101020;19;20038;-74
2023/05/24 08:53:26;;;;;;;16.00;3.90;;;;;;;17.61;53.89;102702.44;6095584;19;20386;-74
2023/05/24 08:55:32;;;;;;;18.02;4.80;;;;;;;17.32;52.74;102701.81;6101173;19;20011;-74
2023/05/24 08:57:40;;;;;;;15.23;3.78;;;;;;;17.05;54.74;102703.75;6102085;19;20184;-75
2023/05/24 08:59:46;;;;;;;11.32;3.70;;;;;;;18.04;51.99;102703.38;6100191;19;20010;-75
2023/05/24 09:01:56;;;;;;;13.57;3.70;;;;;;;18.05;52.16;102700.63;6098301;19;20269;-74
2023/05/24 09:04:02;;;;;;;12.90;3.42;;;;;;;18.10;50.97;102703.97;6098046;19;20038;-76
2023/05/24 09:06:11;;;;;;;18.13;4.75;;;;;;;18.79;50.16;102705.44;6099384;19;20014;-75
2023/05/24 09:08:19;;;;;;;9.18;3.53;;;;;;;19.03;49.91;102698.09;6100495;19;20018;-76
2023/05/24 09:10:24;;;;;;;14.88;3.95;;;;;;;19.22;48.71;102706.09;6098032;19;20047;-74
2023/05/24 09:12:33;;;;;;;13.98;3.95;;;;;;;19.72;49.31;102703.69;6097412;19;20070;-74
2023/05/24 09:14:46;;;;;;;12.07;4.38;;;;;;;18.14;49.20;102702.94;6095201;19;20425;-73
2023/05/24 09:16:56;;;;;;;14.50;3.53;;;;;;;17.35;52.64;102704.34;6096669;19;20015;-74
2023/05/24 09:19:02;;;;;;;12.80;3.75;;;;;;;18.01;50.46;102703.47;6099671;19;20328;-74
2023/05/24 09:21:10;;;;;;;15.73;4.30;;;;;;;18.06;50.27;102702.38;6095125;19;20019;-74
2023/05/24 09:23:16;;;;;;;13.93;4.43;;;;;;;16.79;52.32;102713.53;6097193;19;20035;-74
2023/05/24 09:25:24;;;;;;;18.33;4.53;;;;;;;17.53;52.00;102706.25;6096005;19;20023;-74
2023/05/24 09:27:30;;;;;;;13.15;4.30;;;;;;;18.48;49.50;102700.56;6097667;19;20605;-73
2023/05/24 09:29:37;;;;;;;14.57;3.60;;;;;;;18.33;50.30;102697.66;6099563;19;20042;-74
2023/05/24 09:31:44;;;;;;;11.07;4.57;;;;;;;18.12;49.28;102694.13;6096443;19;20011;-74
2023/05/24 09:33:50;;;;;;;15.38;5.72;;;;;;;17.45;52.16;102689.75;6101608;19;20006;-75
2023/05/24 09:35:59;;;;;;;15.35;3.88;;;;;;;17.53;50.67;102694.78;6099010;19;20606;-74
2023/05/24 09:38:07;;;;;;;13.40;3.55;;;;;;;18.31;50.35;102696.00;6100430;19;20014;-74
2023/05/24 09:40:23;;;;;;;11.57;3.92;;;;;;;17.82;48.95;102700.72;6100592;19;20066;-74
2023/05/24 09:42:29;;;;;;;14.45;4.28;;;;;;;18.31;49.71;102693.34;6105713;19;20010;-75
2023/05/24 09:44:35;;;;;;;16.33;4.72;;;;;;;18.51;48.29;102689.78;6102884;19;20034;-73
2023/05/24 09:46:41;;;;;;;12.73;4.55;;;;;;;17.60;48.96;102682.13;6105273;19;20082;-75
2023/05/24 09:48:58;;;;;;;12.00;3.97;;;;;;;17.51;49.12;102686.03;6104810;19;20043;-74
2023/05/24 09:51:08;;;;;;;15.07;4.15;;;;;;;18.36;49.57;102678.91;6103937;19;20014;-75
2023/05/24 09:53:23;;;;;;;13.88;3.53;;;;;;;18.83;48.01;102681.25;6101050;19;20010;-74